Terminal Aerodrome Forecast
Issued by NWS Amarillo, TX

Home | Current Version | Previous Version | Text Only | Print | Product List | Glossary On
Versions: 1 2 3 4 5 6 7 8 9 10 11 12 13 14
000
FTUS44 KAMA 241744
TAFGUY
TAF
KGUY 241744Z 2418/2518 17008KT P6SM SCT090
     FM242200 17009KT P6SM VCTS SCT090CB BKN300
     FM250400 05007KT P6SM SCT060 BKN300 PROB30 2504/2508 6SM -TSRA
      BKN050CB
     FM250900 VRB06KT P6SM SCT100 BKN300=

USA.gov is the U.S. government's official web portal to all federal, state and local government web resources and services.